Porter Springs, Texas
Current Conditions -  °F | °C
As of 12:55 AM on Monday 22 Dec 2014 (Local Time) from KDKR Reporting Station
Broken Clouds Broken Clouds  
Wind Chill: 55°   Ceiling: 900
Heat Index: 55°   Visibility: NA
Dew Point: 54°   Wind: 10mph
Humidity: 94%   Direction: 160°SSE
Pressure: 29.84"   Gusts: 16mph
Location:  31.2828°N, 95.4821°W
Report Text: KDKR 220655Z AUTO 16009G14KT BKN009 BKN034 13/12 A2984 RMK AO2
Loading
Personal Weather Stations






























Interactive Weather Map New forecast layout! Learn more

10-Day Weather Forecast

Advertisements
Track Severe Weather on mobile